Time;durP1;ratioP1;P1;durP2;ratioP2;P2;SDS_P1;SDS_P2;PMS_P1;PMS_P2;Temp;Humidity;BMP_temperature;BMP_pressure;BME280_temperature;BME280_humidity;BME280_pressure;Samples;Min_cycle;Max_cycle;Signal;HPM_P1;HPM_P2
2023/07/02 00:02:13;;;;;;;11.48;7.00;;;;;;;16.63;100.00;100576.22;5047604;28;20020;-60
2023/07/02 00:04:38;;;;;;;11.05;6.22;;;;;;;16.60;100.00;100571.00;5047542;28;20043;-59
2023/07/02 00:07:04;;;;;;;10.07;6.30;;;;;;;16.60;100.00;100569.25;5047237;28;20028;-60
2023/07/02 00:09:30;;;;;;;14.55;6.70;;;;;;;16.59;100.00;100569.22;5046929;28;20082;-58
2023/07/02 00:11:55;;;;;;;10.77;6.25;;;;;;;16.55;100.00;100573.56;5047801;28;20021;-59
2023/07/02 00:14:21;;;;;;;8.63;6.28;;;;;;;16.54;100.00;100562.25;5047698;28;20021;-59
2023/07/02 00:16:47;;;;;;;12.23;7.38;;;;;;;16.54;100.00;100564.00;5047624;28;20024;-60
2023/07/02 00:19:14;;;;;;;15.70;7.68;;;;;;;16.53;100.00;100567.50;5042396;28;20596;-60
2023/07/02 00:21:40;;;;;;;9.95;7.35;;;;;;;16.51;100.00;100570.09;5040132;28;20086;-60
2023/07/02 00:24:06;;;;;;;12.63;7.85;;;;;;;16.50;100.00;100568.34;5047236;28;20036;-59
2023/07/02 00:26:31;;;;;;;12.52;7.68;;;;;;;16.51;100.00;100571.84;5047672;28;20037;-59
2023/07/02 00:28:57;;;;;;;10.15;7.05;;;;;;;16.51;100.00;100571.84;5046958;28;20082;-60
2023/07/02 00:31:23;;;;;;;13.23;7.38;;;;;;;16.50;100.00;100565.72;5047208;28;20017;-60
2023/07/02 00:33:49;;;;;;;11.60;8.65;;;;;;;16.46;100.00;100556.09;5046863;28;20033;-59
2023/07/02 00:36:14;;;;;;;13.98;8.65;;;;;;;16.44;100.00;100550.03;5046591;28;20021;-58
2023/07/02 00:38:45;;;;;;;14.90;9.05;;;;;;;16.40;100.00;100545.66;5042154;28;20048;-60
2023/07/02 00:41:11;;;;;;;;;;;;;;;16.36;100.00;100541.25;5046082;28;20029;-60
2023/07/02 00:43:36;;;;;;;18.73;8.80;;;;;;;16.32;100.00;100540.38;5043145;28;19920;-59
2023/07/02 00:46:02;;;;;;;18.25;10.13;;;;;;;16.26;100.00;100549.06;5047397;28;20056;-59
2023/07/02 00:48:29;;;;;;;15.43;8.85;;;;;;;16.26;100.00;100551.69;5047302;28;20040;-59
2023/07/02 00:50:55;;;;;;;14.15;8.90;;;;;;;16.28;100.00;100555.19;5046961;28;20052;-60
2023/07/02 00:53:20;;;;;;;16.88;9.30;;;;;;;16.26;100.00;100567.38;5047111;28;20059;-60
2023/07/02 00:55:45;;;;;;;15.65;10.00;;;;;;;16.29;100.00;100579.59;5045960;28;20448;-58
2023/07/02 00:58:11;;;;;;;14.18;8.60;;;;;;;16.30;100.00;100591.78;5046321;28;20070;-60
2023/07/02 01:00:36;;;;;;;16.00;9.13;;;;;;;16.28;100.00;100573.47;5050736;28;20031;-59
2023/07/02 01:03:01;;;;;;;16.02;10.05;;;;;;;16.29;100.00;100584.81;5050797;28;20104;-60
2023/07/02 01:05:35;;;;;;;16.95;10.18;;;;;;;16.28;100.00;100576.09;5051224;28;20435;-59
2023/07/02 01:08:10;;;;;;;16.33;10.20;;;;;;;16.28;100.00;100576.09;5038747;28;20358;-60
2023/07/02 01:10:35;;;;;;;19.73;10.43;;;;;;;16.29;100.00;100577.88;5037310;28;20036;-59
2023/07/02 01:13:21;;;;;;;16.38;10.63;;;;;;;16.30;100.00;100583.94;5051042;28;20024;-60
2023/07/02 01:15:47;;;;;;;16.85;10.60;;;;;;;16.29;100.00;100590.94;5050633;28;20056;-59
2023/07/02 01:18:14;;;;;;;18.50;11.63;;;;;;;16.27;100.00;100584.81;5050711;28;20021;-60
2023/07/02 01:20:40;;;;;;;17.52;10.52;;;;;;;16.25;100.00;100583.94;5050613;28;20048;-60
2023/07/02 01:23:07;;;;;;;19.95;11.25;;;;;;;16.22;100.00;100589.16;5050312;28;20198;-59
2023/07/02 01:25:36;;;;;;;20.23;12.35;;;;;;;16.22;100.00;100589.16;5050923;28;20028;-59
2023/07/02 01:28:02;;;;;;;21.45;11.95;;;;;;;16.20;100.00;100589.16;5050367;28;20025;-60
2023/07/02 01:30:27;;;;;;;17.13;10.70;;;;;;;16.20;100.00;100591.78;5050385;28;20024;-60
2023/07/02 01:32:53;;;;;;;20.02;12.43;;;;;;;16.19;100.00;100599.59;5050637;28;20035;-60
2023/07/02 01:35:18;;;;;;;17.33;11.77;;;;;;;16.17;100.00;100606.56;5050238;28;20082;-60
2023/07/02 01:37:44;;;;;;;20.77;12.77;;;;;;;16.16;100.00;100607.41;5050243;28;20424;-60
2023/07/02 01:40:09;;;;;;;19.63;12.70;;;;;;;16.15;100.00;100609.16;5050639;28;20043;-61
2023/07/02 01:42:35;;;;;;;19.42;13.48;;;;;;;16.13;100.00;100610.03;5050776;28;20025;-60
2023/07/02 01:45:00;;;;;;;23.23;13.63;;;;;;;16.12;100.00;100610.91;5050311;28;20029;-61
2023/07/02 01:47:25;;;;;;;21.27;14.00;;;;;;;16.11;100.00;100609.13;5049995;28;20100;-58
2023/07/02 01:49:51;;;;;;;20.08;13.82;;;;;;;16.08;100.00;100605.63;5050466;28;20028;-58
2023/07/02 01:52:17;;;;;;;19.45;13.55;;;;;;;16.05;100.00;100605.63;5049401;28;20031;-60
2023/07/02 01:54:43;;;;;;;22.75;13.40;;;;;;;16.04;100.00;100603.88;5050407;28;20431;-61
2023/07/02 01:57:08;;;;;;;20.52;12.82;;;;;;;16.03;100.00;100609.09;5049437;28;20016;-61
2023/07/02 01:59:33;;;;;;;23.98;14.65;;;;;;;16.01;100.00;100614.28;5050149;28;20082;-61
2023/07/02 02:01:59;;;;;;;22.73;13.82;;;;;;;16.00;100.00;100607.34;5049811;28;20070;-60
2023/07/02 02:04:24;;;;;;;22.95;14.20;;;;;;;15.97;100.00;100608.16;5049206;28;20419;-60
2023/07/02 02:06:50;;;;;;;21.55;14.10;;;;;;;15.96;100.00;100605.53;5049937;28;20116;-60
2023/07/02 02:09:15;;;;;;;23.38;14.38;;;;;;;15.93;100.00;100614.25;5049364;28;20037;-61
2023/07/02 02:11:45;;;;;;;22.75;14.10;;;;;;;15.93;100.00;100615.97;5039964;28;20078;-60
2023/07/02 02:14:11;;;;;;;23.40;13.48;;;;;;;15.91;100.00;100617.69;5046089;28;20017;-61
2023/07/02 02:16:36;;;;;;;24.60;14.52;;;;;;;15.92;100.00;100615.09;5050377;28;20033;-61
2023/07/02 02:19:02;;;;;;;28.60;15.38;;;;;;;15.92;100.00;100617.69;5048671;28;20055;-60
2023/07/02 02:21:28;;;;;;;25.85;15.05;;;;;;;15.93;100.00;100613.34;5049968;28;20029;-61
2023/07/02 02:23:53;;;;;;;23.02;15.02;;;;;;;15.93;100.00;100613.34;5049032;28;20031;-61
2023/07/02 02:26:21;;;;;;;24.65;15.93;;;;;;;15.92;100.00;100614.25;5049790;28;20164;-61
2023/07/02 02:28:46;;;;;;;23.02;15.57;;;;;;;15.90;100.00;100624.66;5048580;28;20032;-59
2023/07/02 02:31:12;;;;;;;21.73;16.23;;;;;;;15.85;100.00;100622.03;5049329;28;20021;-59
2023/07/02 02:33:38;;;;;;;21.65;14.82;;;;;;;15.79;100.00;100619.38;5049250;28;20044;-61
2023/07/02 02:36:03;;;;;;;26.98;16.13;;;;;;;15.78;100.00;100620.22;5049400;28;20021;-59
2023/07/02 02:38:28;;;;;;;25.15;15.60;;;;;;;15.77;100.00;100617.59;5048692;28;20114;-59
2023/07/02 02:40:54;;;;;;;21.95;14.98;;;;;;;15.75;100.00;100624.56;5049402;28;20025;-59
2023/07/02 02:43:20;;;;;;;25.95;15.43;;;;;;;15.71;100.00;100628.88;5049481;28;20099;-59
2023/07/02 02:45:46;;;;;;;24.65;16.17;;;;;;;15.66;100.00;100634.09;5049244;28;20017;-59
2023/07/02 02:48:11;;;;;;;25.30;15.20;;;;;;;15.60;100.00;100632.28;5048659;28;20075;-58
2023/07/02 02:50:41;;;;;;;24.63;17.25;;;;;;;15.58;100.00;100634.00;5048924;28;20039;-60
2023/07/02 02:53:10;;;;;;;29.98;16.90;;;;;;;15.54;100.00;100640.06;5049227;28;20043;-59
2023/07/02 02:55:36;;;;;;;26.25;14.73;;;;;;;15.51;100.00;100634.81;5048771;28;20021;-59
2023/07/02 02:58:01;;;;;;;25.08;16.38;;;;;;;15.48;100.00;100640.91;5048319;28;20488;-58
2023/07/02 03:00:26;;;;;;;26.65;16.65;;;;;;;15.45;100.00;100640.00;5048626;28;20048;-59
2023/07/02 03:02:52;;;;;;;25.38;16.35;;;;;;;15.43;100.00;100646.94;5048711;28;20108;-59
2023/07/02 03:05:17;;;;;;;21.10;14.95;;;;;;;15.36;100.00;100653.84;5048873;28;20021;-59
2023/07/02 03:07:42;;;;;;;22.35;16.85;;;;;;;15.29;100.00;100657.28;5047671;28;20020;-58
2023/07/02 03:10:08;;;;;;;25.13;16.25;;;;;;;15.21;100.00;100657.19;5038992;28;20525;-61
2023/07/02 03:12:34;;;;;;;26.13;16.55;;;;;;;15.17;100.00;100661.50;5044298;28;20427;-60
2023/07/02 03:14:59;;;;;;;22.50;15.60;;;;;;;15.12;100.00;100669.28;5046537;28;20037;-59
2023/07/02 03:17:24;;;;;;;27.60;16.27;;;;;;;15.10;100.00;100671.00;5046277;28;20028;-58
2023/07/02 03:19:50;;;;;;;23.33;15.57;;;;;;;15.08;100.00;100677.06;5047289;28;20078;-60
2023/07/02 03:22:15;;;;;;;27.90;15.68;;;;;;;15.05;100.00;100672.69;5045695;28;20020;-59
2023/07/02 03:24:41;;;;;;;24.85;15.43;;;;;;;15.05;100.00;100670.09;5046827;28;20013;-60
2023/07/02 03:27:06;;;;;;;23.15;16.20;;;;;;;15.06;100.00;100670.94;5044812;28;20503;-60
2023/07/02 03:29:34;;;;;;;31.75;17.52;;;;;;;15.09;100.00;100678.81;5046279;28;20025;-60
2023/07/02 03:31:59;;;;;;;24.80;15.63;;;;;;;15.09;100.00;100677.06;5046444;28;20020;-61
2023/07/02 03:34:24;;;;;;;27.45;16.20;;;;;;;15.09;100.00;100674.47;5046571;28;20029;-60
2023/07/02 03:36:50;;;;;;;26.95;16.52;;;;;;;15.10;100.00;100686.66;5047366;28;20021;-61
2023/07/02 03:39:16;;;;;;;27.05;15.95;;;;;;;15.09;100.00;100682.28;5048205;28;20025;-60
2023/07/02 03:41:41;;;;;;;24.77;16.15;;;;;;;15.09;100.00;100684.91;5047883;28;20020;-60
2023/07/02 03:44:06;;;;;;;27.50;16.27;;;;;;;15.07;100.00;100686.63;5048364;28;20473;-60
2023/07/02 03:46:32;;;;;;;25.75;14.68;;;;;;;15.04;100.00;100688.34;5047353;28;20024;-60
2023/07/02 03:48:57;;;;;;;25.00;16.90;;;;;;;14.99;100.00;100690.88;5048638;28;20223;-60
2023/07/02 03:51:22;;;;;;;25.55;15.80;;;;;;;14.97;100.00;100692.59;5048024;28;20411;-60
2023/07/02 03:53:48;;;;;;;26.92;16.08;;;;;;;14.94;100.00;100698.66;5047857;28;20038;-60
2023/07/02 03:56:13;;;;;;;23.45;15.00;;;;;;;14.91;100.00;100695.13;5047703;28;20025;-60
2023/07/02 03:58:40;;;;;;;23.60;14.50;;;;;;;14.88;100.00;100691.63;5047774;28;20485;-59
2023/07/02 04:01:05;;;;;;;19.00;14.43;;;;;;;14.88;100.00;100691.63;5048194;28;20031;-60
2023/07/02 04:03:30;;;;;;;21.85;13.40;;;;;;;14.88;100.00;100696.84;5047354;28;20029;-60
2023/07/02 04:05:56;;;;;;;24.58;14.93;;;;;;;14.87;100.00;100696.84;5047794;28;20024;-59
2023/07/02 04:08:21;;;;;;;26.48;14.20;;;;;;;14.87;100.00;100699.44;5047075;28;20032;-59
2023/07/02 04:10:47;;;;;;;22.40;14.63;;;;;;;14.83;100.00;100698.53;5047460;28;20032;-60
2023/07/02 04:13:12;;;;;;;22.73;13.95;;;;;;;14.83;100.00;100705.47;5047770;28;20044;-58
2023/07/02 04:15:38;;;;;;;22.50;13.18;;;;;;;14.82;100.00;100701.13;5035533;28;20026;-59
2023/07/02 04:18:03;;;;;;;21.52;13.60;;;;;;;14.81;100.00;100705.47;5047328;28;20052;-60
2023/07/02 04:20:28;;;;;;;26.23;12.48;;;;;;;14.80;100.00;100711.50;5046356;28;20068;-60
2023/07/02 04:22:54;;;;;;;24.45;12.05;;;;;;;14.80;100.00;100703.69;5047319;28;20473;-60
2023/07/02 04:25:20;;;;;;;20.70;12.80;;;;;;;14.79;100.00;100708.88;5047103;28;20513;-59
2023/07/02 04:27:45;;;;;;;22.70;12.10;;;;;;;14.77;100.00;100699.28;5046840;28;20027;-60
2023/07/02 04:30:11;;;;;;;20.50;12.23;;;;;;;14.77;100.00;100714.94;5046940;28;20041;-58
2023/07/02 04:32:39;;;;;;;19.88;12.65;;;;;;;14.74;100.00;100712.31;5047434;28;20041;-60
2023/07/02 04:35:05;;;;;;;18.40;10.77;;;;;;;14.74;100.00;100714.03;5047251;28;20127;-60
2023/07/02 04:37:30;;;;;;;20.73;11.68;;;;;;;14.75;100.00;100719.25;5046576;28;20091;-59
2023/07/02 04:39:55;;;;;;;18.90;10.20;;;;;;;14.77;100.00;100719.28;5034176;28;20028;-59
2023/07/02 04:42:21;;;;;;;18.73;11.88;;;;;;;14.80;100.00;100724.56;5047325;28;20083;-60
2023/07/02 04:44:46;;;;;;;23.10;11.93;;;;;;;14.84;100.00;100725.50;5047105;28;20067;-60
2023/07/02 04:47:11;;;;;;;19.85;12.18;;;;;;;14.85;100.00;100716.81;5046760;28;20098;-60
2023/07/02 04:49:38;;;;;;;20.60;12.10;;;;;;;14.87;100.00;100717.72;5043598;28;20029;-60
2023/07/02 04:52:03;;;;;;;21.90;12.68;;;;;;;14.88;100.00;100735.97;5040769;28;20059;-60
2023/07/02 04:54:28;;;;;;;21.20;12.70;;;;;;;14.89;100.00;100732.50;5047731;28;20060;-59
2023/07/02 04:56:53;;;;;;;22.10;11.73;;;;;;;14.91;100.00;100722.13;5047054;28;20041;-60
2023/07/02 04:59:21;;;;;;;19.02;12.75;;;;;;;14.95;100.00;100729.09;5047162;28;20029;-59
2023/07/02 05:01:46;;;;;;;18.02;12.13;;;;;;;14.98;100.00;100726.56;5046994;28;20480;-58
2023/07/02 05:04:11;;;;;;;20.00;11.82;;;;;;;15.00;100.00;100732.63;5047082;28;20604;-60
2023/07/02 05:06:37;;;;;;;20.33;12.25;;;;;;;15.06;100.00;100731.84;5047096;28;20024;-60
2023/07/02 05:09:03;;;;;;;18.77;11.93;;;;;;;15.09;100.00;100746.66;5047044;28;20374;-58
2023/07/02 05:11:28;;;;;;;18.75;11.63;;;;;;;15.10;100.00;100744.06;5046872;28;20025;-59
2023/07/02 05:13:53;;;;;;;22.95;12.35;;;;;;;15.12;100.00;100741.47;5047288;28;20033;-59
2023/07/02 05:16:19;;;;;;;19.17;11.70;;;;;;;15.15;100.00;100745.88;5047183;28;20031;-60
2023/07/02 05:18:44;;;;;;;19.83;11.93;;;;;;;15.19;100.00;100751.13;5046581;28;20029;-60
2023/07/02 05:21:09;;;;;;;20.20;11.63;;;;;;;15.23;100.00;100752.03;5046475;28;20054;-60
2023/07/02 05:23:35;;;;;;;18.48;11.82;;;;;;;15.28;100.00;100746.88;5046456;28;20033;-59
2023/07/02 05:26:00;;;;;;;19.60;10.55;;;;;;;15.33;100.00;100753.00;5047125;28;20094;-59
2023/07/02 05:28:25;;;;;;;18.35;10.10;;;;;;;15.39;100.00;100763.53;5046729;28;20017;-60
2023/07/02 05:30:50;;;;;;;17.00;9.90;;;;;;;15.45;100.00;100762.72;5045610;28;20024;-60
2023/07/02 05:33:16;;;;;;;15.85;9.82;;;;;;;15.52;100.00;100766.28;5046729;28;20033;-60
2023/07/02 05:35:41;;;;;;;15.77;10.00;;;;;;;15.51;100.00;100775.81;5047183;28;20029;-60
2023/07/02 05:38:07;;;;;;;19.33;9.75;;;;;;;15.52;100.00;100772.38;5046239;28;20374;-61
2023/07/02 05:40:32;;;;;;;17.20;9.75;;;;;;;15.54;100.00;100775.84;5046453;28;20075;-59
2023/07/02 05:42:57;;;;;;;17.58;9.85;;;;;;;15.54;100.00;100781.06;5045338;28;20043;-58
2023/07/02 05:45:23;;;;;;;19.92;9.95;;;;;;;15.57;100.00;100777.63;5047948;28;20629;-60
2023/07/02 05:47:49;;;;;;;15.50;8.52;;;;;;;15.59;100.00;100786.38;5050429;28;20015;-60
2023/07/02 05:50:14;;;;;;;19.92;9.23;;;;;;;15.63;100.00;100784.66;5049923;28;20056;-58
2023/07/02 05:52:39;;;;;;;13.65;8.63;;;;;;;15.68;100.00;100780.34;5050618;28;20025;-59
2023/07/02 05:55:07;;;;;;;15.57;8.80;;;;;;;15.73;100.00;100791.72;5050529;28;20024;-60
2023/07/02 05:57:32;;;;;;;17.42;8.68;;;;;;;15.80;100.00;100788.31;5037047;28;20021;-60
2023/07/02 05:59:57;;;;;;;17.27;8.60;;;;;;;15.91;99.46;100795.38;5036889;28;20033;-57
2023/07/02 06:02:23;;;;;;;14.73;7.70;;;;;;;15.98;98.44;100791.94;5050118;28;20441;-60
2023/07/02 06:04:48;;;;;;;13.68;7.43;;;;;;;16.03;97.27;100785.06;5049963;28;20025;-60
2023/07/02 06:07:13;;;;;;;16.60;8.10;;;;;;;16.07;96.05;100788.56;5049523;28;20048;-58
2023/07/02 06:09:39;;;;;;;16.88;7.65;;;;;;;16.14;98.11;100794.72;5049709;28;20027;-60
2023/07/02 06:12:04;;;;;;;17.48;8.15;;;;;;;16.18;97.84;100804.34;5050120;28;20492;-60
2023/07/02 06:14:29;;;;;;;14.30;7.35;;;;;;;16.19;96.73;100806.97;5049770;28;20078;-59
2023/07/02 06:16:57;;;;;;;15.55;7.97;;;;;;;16.23;97.73;100809.59;5049806;28;20021;-59
2023/07/02 06:19:22;;;;;;;17.77;7.70;;;;;;;16.27;96.54;100809.66;5049669;28;20017;-60
2023/07/02 06:21:47;;;;;;;16.83;7.65;;;;;;;16.36;95.79;100808.84;5049142;28;20027;-60
2023/07/02 06:24:13;;;;;;;17.70;8.05;;;;;;;16.46;95.16;100815.00;5048836;28;20083;-59
2023/07/02 06:26:38;;;;;;;12.70;7.10;;;;;;;16.56;94.20;100808.09;5049769;28;20496;-60
2023/07/02 06:29:03;;;;;;;16.55;7.90;;;;;;;16.64;95.07;100806.41;5049511;28;20248;-60
2023/07/02 06:31:29;;;;;;;11.65;7.55;;;;;;;16.71;92.32;100816.91;5049903;28;20029;-60
2023/07/02 06:33:54;;;;;;;16.35;7.43;;;;;;;16.74;91.78;100820.44;5048326;28;20017;-60
2023/07/02 06:36:19;;;;;;;18.52;7.88;;;;;;;16.78;90.95;100816.94;5049163;28;20060;-58
2023/07/02 06:38:45;;;;;;;14.50;7.75;;;;;;;16.91;91.89;100827.47;5049447;28;20045;-59
2023/07/02 06:41:10;;;;;;;12.50;6.78;;;;;;;16.99;90.73;100817.94;5049561;28;20036;-60
2023/07/02 06:43:36;;;;;;;16.30;7.55;;;;;;;17.01;87.80;100816.22;5049423;28;20025;-60
2023/07/02 06:46:01;;;;;;;15.90;6.65;;;;;;;16.99;85.99;100820.56;5049002;28;20023;-60
2023/07/02 06:48:26;;;;;;;13.65;6.25;;;;;;;16.98;86.76;100824.03;5049014;28;20029;-59
2023/07/02 06:50:51;;;;;;;11.52;6.50;;;;;;;16.97;87.41;100827.53;5048796;28;20025;-59
2023/07/02 06:53:17;;;;;;;13.73;6.53;;;;;;;16.94;86.30;100835.38;5049020;28;20047;-60
2023/07/02 06:55:42;;;;;;;13.18;6.78;;;;;;;16.93;86.68;100836.22;5048366;28;20041;-60
2023/07/02 06:58:08;;;;;;;12.50;6.30;;;;;;;16.93;86.95;100839.72;5045193;28;20384;-59
2023/07/02 07:00:36;;;;;;;11.82;6.65;;;;;;;16.96;90.32;100844.13;5048405;28;20028;-60
2023/07/02 07:03:03;;;;;;;14.25;6.13;;;;;;;16.96;88.74;100849.34;5049397;28;20393;-60
2023/07/02 07:05:32;;;;;;;14.70;6.10;;;;;;;17.02;88.10;100857.22;5047949;28;20025;-59
2023/07/02 07:07:58;;;;;;;12.45;6.53;;;;;;;17.06;88.02;100850.25;5048605;28;20465;-58
2023/07/02 07:10:24;;;;;;;12.20;6.70;;;;;;;17.10;87.44;100846.84;5048763;28;20033;-60
2023/07/02 07:12:49;;;;;;;11.82;6.63;;;;;;;17.14;87.26;100852.97;5048359;28;20385;-60
2023/07/02 07:15:14;;;;;;;13.88;7.00;;;;;;;17.23;87.93;100850.38;5048807;28;20496;-60
2023/07/02 07:17:39;;;;;;;16.45;6.97;;;;;;;17.31;87.05;100860.00;5047719;28;20021;-61
2023/07/02 07:20:05;;;;;;;14.13;6.85;;;;;;;17.35;85.78;100854.78;5048588;28;20366;-60
2023/07/02 07:22:31;;;;;;;13.48;6.80;;;;;;;17.40;85.17;100857.41;5048322;28;20033;-59
2023/07/02 07:24:56;;;;;;;10.38;5.30;;;;;;;17.46;83.89;100860.06;5048627;28;20025;-59
2023/07/02 07:27:21;;;;;;;10.23;6.25;;;;;;;17.49;81.51;100873.19;5048270;28;20032;-59
2023/07/02 07:29:47;;;;;;;11.57;7.22;;;;;;;17.48;82.49;100860.97;5049224;28;20028;-60
2023/07/02 07:32:12;;;;;;;12.70;6.45;;;;;;;17.54;82.30;100874.94;5041774;28;20032;-60
2023/07/02 07:34:37;;;;;;;13.07;5.95;;;;;;;17.60;80.70;100880.19;5041139;28;20366;-60
2023/07/02 07:37:03;;;;;;;11.05;5.70;;;;;;;17.66;80.96;100885.47;5048122;28;20060;-60
2023/07/02 07:39:28;;;;;;;11.95;6.72;;;;;;;17.72;82.07;100888.09;5047712;28;20029;-60
2023/07/02 07:41:53;;;;;;;14.13;6.15;;;;;;;17.81;80.26;100894.25;5047783;28;20025;-60
2023/07/02 07:44:18;;;;;;;10.50;5.57;;;;;;;17.88;79.33;100885.53;5048482;28;20052;-60
2023/07/02 07:46:44;;;;;;;9.95;6.00;;;;;;;17.93;80.13;100889.03;5048227;28;20016;-60
2023/07/02 07:49:09;;;;;;;12.32;5.60;;;;;;;17.96;79.55;100899.50;5047883;28;20009;-60
2023/07/02 07:51:35;;;;;;;10.88;5.60;;;;;;;17.99;79.93;100894.28;5047770;28;20024;-60
2023/07/02 07:54:01;;;;;;;13.10;5.43;;;;;;;18.03;78.00;100892.53;5047764;28;20409;-60
2023/07/02 07:56:27;;;;;;;11.07;5.13;;;;;;;18.06;77.37;100892.53;5047879;28;20098;-59
2023/07/02 07:58:52;;;;;;;12.30;5.35;;;;;;;18.15;77.90;100899.56;5045986;28;20057;-61
2023/07/02 08:01:17;;;;;;;10.77;5.10;;;;;;;18.06;73.98;100895.16;5048363;28;20036;-59
2023/07/02 08:03:42;;;;;;;11.30;5.47;;;;;;;18.07;75.23;100906.53;5047820;28;20017;-61
2023/07/02 08:06:08;;;;;;;10.00;5.13;;;;;;;18.11;76.65;100900.41;5047241;28;20088;-60
2023/07/02 08:08:33;;;;;;;9.07;5.38;;;;;;;18.15;77.09;100904.81;5046564;28;20370;-61
2023/07/02 08:10:58;;;;;;;11.45;5.68;;;;;;;18.12;75.41;100910.03;5047577;28;20032;-59
2023/07/02 08:13:24;;;;;;;8.98;5.50;;;;;;;18.16;76.90;100910.94;5047990;28;20021;-60
2023/07/02 08:15:49;;;;;;;9.18;5.32;;;;;;;18.19;78.17;100911.81;5047330;28;20028;-60
2023/07/02 08:18:14;;;;;;;10.80;5.32;;;;;;;18.22;75.95;100909.19;5047011;28;20487;-60
2023/07/02 08:20:39;;;;;;;12.13;5.28;;;;;;;18.22;74.33;100906.56;5047153;28;20021;-60
2023/07/02 08:23:05;;;;;;;8.13;5.50;;;;;;;18.33;75.76;100913.59;5047479;28;20032;-60
2023/07/02 08:25:31;;;;;;;10.90;5.82;;;;;;;18.40;74.29;100914.47;5047318;28;20028;-60
2023/07/02 08:27:56;;;;;;;11.13;5.43;;;;;;;18.37;72.14;100920.56;5047532;28;20020;-61
2023/07/02 08:30:22;;;;;;;10.07;5.70;;;;;;;18.41;73.88;100914.47;5046128;28;20035;-60
2023/07/02 08:32:47;;;;;;;8.23;5.18;;;;;;;18.38;72.68;100917.09;5046897;28;20086;-61
2023/07/02 08:35:12;;;;;;;9.68;5.60;;;;;;;18.38;73.90;100922.34;5047057;28;20013;-60
2023/07/02 08:37:38;;;;;;;8.35;5.13;;;;;;;18.38;75.24;100917.09;5044640;28;20052;-61
2023/07/02 08:40:04;;;;;;;9.88;5.68;;;;;;;18.36;75.50;100929.31;5046997;28;20021;-60
2023/07/02 08:42:34;;;;;;;12.18;5.32;;;;;;;18.36;73.20;100931.94;5044271;28;20086;-60
2023/07/02 08:45:00;;;;;;;9.82;5.45;;;;;;;18.34;72.43;100928.44;5046414;28;20116;-61
2023/07/02 08:47:25;;;;;;;10.05;5.40;;;;;;;18.42;73.38;100928.47;5047139;28;20083;-61
2023/07/02 08:49:51;;;;;;;11.40;5.30;;;;;;;18.46;72.87;100931.06;5047176;28;20017;-60
2023/07/02 08:52:16;;;;;;;10.07;5.55;;;;;;;18.57;70.65;100932.81;5044548;28;20538;-60
2023/07/02 08:54:42;;;;;;;9.07;4.68;;;;;;;18.74;69.63;100934.56;5046967;28;20120;-60
2023/07/02 08:57:09;;;;;;;9.95;5.22;;;;;;;18.86;70.51;100931.06;5042634;28;20452;-61
2023/07/02 08:59:36;;;;;;;6.80;4.95;;;;;;;18.90;69.13;100933.69;5045729;28;20045;-60
2023/07/02 09:02:01;;;;;;;7.55;4.57;;;;;;;18.87;65.54;100933.69;5044157;28;20032;-60
2023/07/02 09:04:28;;;;;;;7.07;4.38;;;;;;;18.81;67.06;100925.81;5047247;28;20021;-61
2023/07/02 09:07:02;;;;;;;7.97;4.60;;;;;;;18.83;66.32;100930.19;5046820;28;20033;-61
2023/07/02 09:09:27;;;;;;;10.88;5.15;;;;;;;18.99;68.54;100929.28;5045972;28;20021;-60
2023/07/02 09:11:53;;;;;;;9.50;5.03;;;;;;;19.20;67.01;100934.53;5047151;28;20032;-61
2023/07/02 09:14:44;;;;;;;10.65;4.97;;;;;;;19.43;61.01;100936.22;5042646;28;20033;-61
2023/07/02 09:17:10;;;;;;;11.93;4.50;;;;;;;19.64;60.31;100944.03;5042775;28;20051;-61
2023/07/02 09:19:36;;;;;;;9.02;4.80;;;;;;;19.70;58.65;100941.34;5043147;28;20395;-61
2023/07/02 09:22:02;;;;;;;9.80;4.43;;;;;;;19.62;56.52;100944.03;5048064;28;20041;-60
2023/07/02 09:24:30;;;;;;;7.47;4.40;;;;;;;19.32;56.44;100938.00;5047077;28;20072;-59
2023/07/02 09:26:57;;;;;;;8.60;4.78;;;;;;;19.17;59.47;100945.06;5047914;28;20029;-60
2023/07/02 09:29:31;;;;;;;8.82;4.93;;;;;;;19.07;59.41;100935.41;5046880;28;20389;-61
2023/07/02 09:32:01;;;;;;;8.93;4.45;;;;;;;19.18;64.80;100940.66;5047422;28;20032;-60
2023/07/02 09:34:37;;;;;;;7.00;4.63;;;;;;;19.41;62.73;100929.25;5046557;28;20078;-60
2023/07/02 09:37:04;;;;;;;7.65;4.45;;;;;;;19.79;64.37;100919.41;5047655;28;20404;-60
2023/07/02 09:39:35;;;;;;;8.85;5.13;;;;;;;20.13;62.34;100919.25;5045232;28;20036;-59
2023/07/02 09:42:02;;;;;;;8.65;4.80;;;;;;;20.42;60.37;100916.44;5038971;28;20452;-59
2023/07/02 09:44:32;;;;;;;7.53;4.07;;;;;;;20.61;61.49;100918.03;5048211;28;20031;-60
2023/07/02 09:47:01;;;;;;;7.18;3.55;;;;;;;20.74;59.45;100917.91;5044745;28;20037;-61
2023/07/02 09:49:31;;;;;;;9.27;5.00;;;;;;;20.72;58.74;100920.53;5044284;28;20075;-61
2023/07/02 09:51:59;;;;;;;9.10;5.18;;;;;;;20.52;58.09;100920.72;5039071;28;20041;-60
2023/07/02 09:54:24;;;;;;;8.52;4.47;;;;;;;20.26;57.16;100930.56;5045574;28;20028;-60
2023/07/02 09:56:49;;;;;;;7.65;5.03;;;;;;;20.06;58.98;100933.31;5045240;28;20362;-60
2023/07/02 09:59:15;;;;;;;7.47;4.82;;;;;;;19.94;59.83;100934.25;5046080;28;20118;-59
2023/07/02 10:01:40;;;;;;;11.85;5.43;;;;;;;19.82;60.03;100940.44;5045499;28;20024;-60
2023/07/02 10:04:18;;;;;;;8.20;4.85;;;;;;;19.77;61.08;100934.34;5045377;28;20159;-60
2023/07/02 10:06:56;;;;;;;10.45;6.18;;;;;;;19.73;61.81;100937.84;5046271;28;20103;-60
2023/07/02 10:09:54;;;;;;;7.75;5.13;;;;;;;19.64;61.63;100951.91;5043484;28;20024;-62
2023/07/02 10:12:27;;;;;;;9.88;5.40;;;;;;;19.60;62.01;100948.41;5043053;28;20051;-60
2023/07/02 10:14:54;;;;;;;9.25;5.30;;;;;;;19.70;63.40;100964.16;5035168;28;20342;-60
2023/07/02 10:17:30;;;;;;;8.77;5.43;;;;;;;19.74;61.81;100960.63;5047564;28;20033;-60
2023/07/02 10:19:59;;;;;;;10.23;5.32;;;;;;;19.70;61.61;100956.28;5046729;28;20029;-60
2023/07/02 10:22:24;;;;;;;8.52;5.53;;;;;;;19.61;61.91;100955.41;5047385;28;20031;-59
2023/07/02 10:24:59;;;;;;;11.27;5.35;;;;;;;19.46;62.10;100959.00;5047323;28;20025;-61
2023/07/02 10:27:38;;;;;;;12.15;5.35;;;;;;;19.34;63.02;100957.25;5045922;28;20060;-60
2023/07/02 10:30:08;;;;;;;12.40;5.68;;;;;;;19.26;62.42;100959.91;5043943;28;20120;-60
2023/07/02 10:32:34;;;;;;;12.13;5.57;;;;;;;19.23;63.98;100959.91;5048649;28;20424;-58
2023/07/02 10:35:04;;;;;;;10.50;5.60;;;;;;;19.23;65.03;100964.31;5041807;28;20116;-61
2023/07/02 10:37:38;;;;;;;11.18;5.22;;;;;;;19.18;64.38;100959.94;5049113;28;20049;-61
2023/07/02 10:40:08;;;;;;;9.27;5.90;;;;;;;19.24;64.77;100960.78;5047098;28;20041;-61
2023/07/02 10:42:36;;;;;;;11.07;5.22;;;;;;;19.32;63.91;100980.03;5040584;28;20059;-59
2023/07/02 10:45:01;;;;;;;8.45;5.70;;;;;;;19.54;64.26;100964.19;5048764;28;20511;-60
2023/07/02 10:47:28;;;;;;;10.27;6.15;;;;;;;19.71;62.57;100960.63;5048430;28;20021;-60
2023/07/02 10:49:53;;;;;;;10.80;6.13;;;;;;;19.75;63.09;100962.38;5049364;28;20033;-61
2023/07/02 10:52:18;;;;;;;11.30;5.75;;;;;;;19.80;63.82;100973.75;5048769;28;20029;-60
2023/07/02 10:54:46;;;;;;;12.98;5.63;;;;;;;19.79;63.12;100966.72;5048946;28;20461;-61
2023/07/02 10:57:20;;;;;;;11.02;5.57;;;;;;;19.77;62.36;100955.38;5039958;28;20419;-60
2023/07/02 10:59:45;;;;;;;11.70;5.85;;;;;;;19.72;63.86;100968.50;5049170;28;20043;-60
2023/07/02 11:02:11;;;;;;;12.07;5.70;;;;;;;19.76;66.49;100970.25;5049001;28;20469;-60
2023/07/02 11:04:37;;;;;;;13.65;6.60;;;;;;;19.76;63.46;100967.63;5048608;28;20036;-60
2023/07/02 11:07:03;;;;;;;10.52;6.75;;;;;;;19.72;60.19;100970.25;5049124;28;20086;-60
2023/07/02 11:09:28;;;;;;;10.57;6.60;;;;;;;19.84;61.54;100967.56;5048728;28;20016;-59